San Francisco, California
Traffic Map
Current Weather Conditions
San Francisco, California
Scattered Clouds
Scattered Clouds
57°
Feels Like: 57°
Wind Chill: 57° Ceiling: Unl
Heat Index: 57° Visibility: 8mi
Dew Point: 50° Wind: 21mph
Humidity: 77% Direction: 280° (W)
Pressure: 29.87in Gusts: 0mph
Raw Report DataKSFO 171556Z 28018KT 8SM FEW008 SCT200 14/10 A2987 RMK AO2 SLP114 T01390100
Traffic Incident Summary
Active as of:
Severity:
Category:
InformationThere was an issue retrieving the traffic information for this location. Please try a different location or try again shortly.
Advertisements
At Last! Intellicast now available for iPhone and Android